Terminal Aerodrome Forecast
Issued by NWS

Home | Current Version | Previous Version | Text Only | Print | Product List | Glossary On
Versions: 1 2 3 4 5 6 7 8 9 10 11 12
176
FTUS44 KEPZ 240533
TAFLRU
TAF
KLRU 240533Z 2406/2506 28011KT P6SM SKC
      TEMPO 2407/2411 28012G22KT FEW040
     FM241800 26011G20KT P6SM SKC
     FM250300 27010KT P6SM SKC=

USA.gov is the U.S. government's official web portal to all federal, state and local government web resources and services.